Time;durP1;ratioP1;P1;durP2;ratioP2;P2;SDS_P1;SDS_P2;PMS_P1;PMS_P2;Temp;Humidity;BMP_temperature;BMP_pressure;BME280_temperature;BME280_humidity;BME280_pressure;Samples;Min_cycle;Max_cycle;Signal;HPM_P1;HPM_P2
2021/08/08 00:01:31;;;;;;;1.80;0.97;;;;;;;17.93;67.77;99581.50;5014335;28;20210;-80
2021/08/08 00:03:57;;;;;;;1.60;0.70;;;;;;;17.91;67.48;99585.38;5015083;28;20206;-79
2021/08/08 00:06:25;;;;;;;1.77;0.90;;;;;;;17.88;67.31;99577.66;5014954;28;20229;-80
2021/08/08 00:08:52;;;;;;;0.83;0.70;;;;;;;17.85;66.86;99581.50;5014712;28;20230;-79
2021/08/08 00:11:18;;;;;;;1.80;0.97;;;;;;;17.84;66.86;99576.28;5015743;28;20294;-80
2021/08/08 00:13:45;;;;;;;1.50;0.70;;;;;;;17.81;66.56;99580.16;5018170;28;20231;-80
2021/08/08 00:16:12;;;;;;;2.23;0.90;;;;;;;17.80;66.33;99591.09;5014565;28;20305;-79
2021/08/08 00:18:38;;;;;;;2.07;0.80;;;;;;;17.78;66.13;99583.19;5014713;28;20218;-79
2021/08/08 00:21:05;;;;;;;0.80;0.80;;;;;;;17.76;65.88;99592.44;5018387;28;20207;-78
2021/08/08 00:23:33;;;;;;;0.80;0.70;;;;;;;17.75;65.91;99591.59;5013702;28;20723;-79
2021/08/08 00:26:00;;;;;;;1.10;0.70;;;;;;;17.76;65.35;99601.38;5014011;28;20213;-80
2021/08/08 00:28:26;;;;;;;1.83;0.80;;;;;;;17.72;65.10;99596.50;5015172;28;20577;-80
2021/08/08 00:30:53;;;;;;;1.13;0.70;;;;;;;17.69;64.92;99595.00;5007772;28;20606;-79
2021/08/08 00:33:19;;;;;;;1.03;0.60;;;;;;;17.66;64.70;99600.72;5014226;28;20206;-79
2021/08/08 00:35:46;;;;;;;1.10;0.80;;;;;;;17.64;64.49;99605.41;5016787;28;20209;-79
2021/08/08 00:38:12;;;;;;;1.80;0.70;;;;;;;17.61;64.21;99605.72;5015252;28;20214;-80
2021/08/08 00:40:40;;;;;;;0.77;0.57;;;;;;;17.58;64.01;99609.56;5014178;28;20244;-80
2021/08/08 00:43:10;;;;;;;1.00;0.57;;;;;;;17.54;63.82;99591.25;5014213;28;20241;-80
2021/08/08 00:45:37;;;;;;;1.43;0.50;;;;;;;17.51;63.75;99602.34;5020013;28;20210;-79
2021/08/08 00:48:04;;;;;;;0.53;0.50;;;;;;;17.48;63.50;99602.69;5012732;28;20216;-80
2021/08/08 00:50:31;;;;;;;0.90;0.40;;;;;;;17.45;63.17;99603.00;5015205;28;20228;-80
2021/08/08 00:52:57;;;;;;;0.70;0.60;;;;;;;17.39;62.88;99603.66;5015703;28;20225;-79
2021/08/08 00:55:24;;;;;;;0.63;0.60;;;;;;;17.35;63.03;99600.47;5020496;28;20575;-80
2021/08/08 00:57:52;;;;;;;0.40;0.30;;;;;;;17.30;63.07;99603.66;5013220;28;20679;-80
2021/08/08 01:00:20;;;;;;;0.50;0.40;;;;;;;17.26;63.06;99604.16;5014320;28;20232;-80
2021/08/08 01:02:49;;;;;;;1.10;0.50;;;;;;;17.22;63.11;99603.63;5013797;28;20547;-79
2021/08/08 01:05:22;;;;;;;1.10;0.43;;;;;;;17.18;63.15;99605.00;5014233;28;20584;-80
2021/08/08 01:07:54;;;;;;;2.03;0.40;;;;;;;17.14;62.90;99619.78;5013214;28;20230;-80
2021/08/08 01:10:21;;;;;;;0.93;0.43;;;;;;;17.12;63.11;99618.25;5014492;28;20312;-79
2021/08/08 01:12:51;;;;;;;1.17;0.77;;;;;;;17.08;62.91;99606.97;5013566;28;20208;-80
2021/08/08 01:15:19;;;;;;;1.40;0.50;;;;;;;17.04;62.98;99618.22;5014169;28;20296;-79
2021/08/08 01:17:46;;;;;;;1.57;0.50;;;;;;;17.02;63.05;99617.56;5014973;28;20223;-79
2021/08/08 01:20:14;;;;;;;1.00;0.30;;;;;;;16.98;63.13;99606.28;5014669;28;20240;-79
2021/08/08 01:22:44;;;;;;;1.90;0.50;;;;;;;16.95;63.21;99623.59;5017054;28;20210;-79
2021/08/08 01:25:14;;;;;;;0.77;0.50;;;;;;;16.92;63.34;99617.69;5014657;28;20219;-80
2021/08/08 01:27:40;;;;;;;1.30;0.40;;;;;;;16.87;63.61;99631.59;5017846;28;20670;-80
2021/08/08 01:30:09;;;;;;;0.40;0.33;;;;;;;16.82;63.66;99623.22;5010548;28;20766;-79
2021/08/08 01:32:37;;;;;;;0.60;0.47;;;;;;;16.81;63.90;99617.97;5013979;28;20206;-79
2021/08/08 01:35:05;;;;;;;0.40;0.30;;;;;;;16.78;64.07;99623.69;5014163;28;20232;-79
2021/08/08 01:37:32;;;;;;;0.93;0.40;;;;;;;16.76;64.13;99625.69;5016985;28;20200;-80
2021/08/08 01:40:03;;;;;;;1.23;0.50;;;;;;;16.71;64.22;99626.16;5012559;28;20233;-79
2021/08/08 01:42:32;;;;;;;1.37;0.40;;;;;;;16.70;64.49;99624.47;5013814;28;20208;-80
2021/08/08 01:45:01;;;;;;;1.67;0.67;;;;;;;16.67;64.53;99631.00;5013985;28;20204;-80
2021/08/08 01:47:32;;;;;;;1.17;0.50;;;;;;;16.64;64.51;99634.03;5013627;28;20205;-80
2021/08/08 01:50:00;;;;;;;1.47;0.60;;;;;;;16.62;64.74;99627.94;5012067;28;20243;-79
2021/08/08 01:52:27;;;;;;;1.27;0.40;;;;;;;16.57;64.93;99624.91;5013562;28;20207;-79
2021/08/08 01:54:55;;;;;;;0.90;0.47;;;;;;;16.57;65.03;99622.22;5013168;28;20242;-79
2021/08/08 01:57:21;;;;;;;1.47;0.40;;;;;;;16.54;65.21;99635.13;5012591;28;20220;-79
2021/08/08 01:59:49;;;;;;;1.17;0.50;;;;;;;16.52;65.24;99631.75;5012057;28;20227;-79
2021/08/08 02:02:18;;;;;;;1.13;0.60;;;;;;;16.48;65.44;99631.22;5016998;28;20206;-79
2021/08/08 02:04:45;;;;;;;1.90;0.30;;;;;;;16.44;65.64;99632.56;5014251;28;20761;-79
2021/08/08 02:07:14;;;;;;;1.20;0.47;;;;;;;16.43;65.83;99640.78;5012059;28;20251;-79
2021/08/08 02:09:41;;;;;;;1.10;0.63;;;;;;;16.40;65.84;99639.25;5013584;28;20266;-80
2021/08/08 02:12:09;;;;;;;1.03;0.40;;;;;;;16.37;65.86;99642.25;5013563;28;20216;-79
2021/08/08 02:14:35;;;;;;;0.80;0.47;;;;;;;16.32;66.02;99648.09;5013743;28;20698;-79
2021/08/08 02:17:04;;;;;;;1.50;0.57;;;;;;;16.33;66.29;99643.56;5016921;28;20234;-79
2021/08/08 02:19:31;;;;;;;1.10;0.57;;;;;;;16.31;66.10;99640.19;5014320;28;20226;-80
2021/08/08 02:21:58;;;;;;;1.03;0.60;;;;;;;16.29;66.31;99644.91;5015103;28;20210;-80
2021/08/08 02:24:25;;;;;;;0.47;0.40;;;;;;;16.27;66.62;99641.53;5026909;28;20209;-79
2021/08/08 02:26:51;;;;;;;1.13;0.47;;;;;;;16.26;66.41;99640.69;5016065;28;20299;-80
2021/08/08 02:29:18;;;;;;;1.40;0.40;;;;;;;16.26;66.55;99642.53;5010992;28;20737;-79
2021/08/08 02:31:45;;;;;;;0.87;0.40;;;;;;;16.25;66.74;99646.22;5012052;28;20211;-79
2021/08/08 02:34:14;;;;;;;1.50;0.40;;;;;;;16.24;66.66;99653.41;5013343;28;20666;-79
2021/08/08 02:36:41;;;;;;;1.03;0.43;;;;;;;16.25;66.73;99646.22;5010052;28;20206;-79
2021/08/08 02:39:08;;;;;;;0.63;0.43;;;;;;;16.24;66.92;99649.88;5013693;28;20322;-80
2021/08/08 02:41:35;;;;;;;0.50;0.40;;;;;;;16.24;67.15;99656.09;5016201;28;20211;-80
2021/08/08 02:44:02;;;;;;;1.17;0.50;;;;;;;16.22;67.10;99657.25;5012493;28;20207;-79
2021/08/08 02:46:29;;;;;;;0.73;0.50;;;;;;;16.22;67.29;99658.09;5011805;28;20205;-79
2021/08/08 02:48:55;;;;;;;2.10;0.70;;;;;;;16.23;67.34;99661.63;5004542;28;20257;-80
2021/08/08 02:51:23;;;;;;;2.00;0.60;;;;;;;16.22;67.19;99665.31;5012560;28;20204;-79
2021/08/08 02:53:50;;;;;;;2.00;0.50;;;;;;;16.20;67.32;99664.63;5017162;28;20706;-80
2021/08/08 02:56:16;;;;;;;0.70;0.50;;;;;;;16.18;67.22;99672.84;5011178;28;20203;-79
2021/08/08 02:58:43;;;;;;;0.53;0.50;;;;;;;16.21;67.66;99682.44;5011834;28;20243;-80
2021/08/08 03:01:11;;;;;;;2.20;0.60;;;;;;;16.21;67.35;99679.75;5011808;28;20219;-79
2021/08/08 03:03:37;;;;;;;0.77;0.43;;;;;;;16.20;67.51;99689.66;5012048;28;20216;-79
2021/08/08 03:06:09;;;;;;;1.63;0.67;;;;;;;16.20;67.38;99686.13;5012276;28;20226;-79
2021/08/08 03:08:37;;;;;;;1.30;0.70;;;;;;;16.18;67.48;99691.66;5012886;28;20205;-79
2021/08/08 03:11:04;;;;;;;1.13;0.40;;;;;;;16.18;67.86;99702.41;5013451;28;20207;-80
2021/08/08 03:13:30;;;;;;;1.83;0.60;;;;;;;16.18;67.95;99709.59;5013473;28;20203;-79
2021/08/08 03:15:57;;;;;;;1.93;0.63;;;;;;;16.17;68.02;99714.13;5013231;28;20252;-79
2021/08/08 03:18:24;;;;;;;1.13;0.60;;;;;;;16.19;68.02;99716.66;5012035;28;20647;-79
2021/08/08 03:20:50;;;;;;;0.63;0.63;;;;;;;16.18;67.97;99726.56;5018644;28;20251;-80
2021/08/08 03:23:18;;;;;;;0.53;0.50;;;;;;;16.19;68.13;99722.88;5004814;28;20296;-79
2021/08/08 03:26:01;;;;;;;0.97;0.87;;;;;;;16.19;67.96;99725.56;5010893;28;20645;-79
2021/08/08 03:28:27;;;;;;;1.50;0.60;;;;;;;16.22;68.20;99727.13;5011462;28;20199;-80
2021/08/08 03:30:54;;;;;;;2.43;0.80;;;;;;;16.23;67.99;99721.59;5010814;28;20915;-79
2021/08/08 03:33:21;;;;;;;0.70;0.40;;;;;;;16.24;68.11;99715.22;5011279;28;20204;-79
2021/08/08 03:35:47;;;;;;;1.07;0.50;;;;;;;16.24;68.06;99727.81;5010395;28;20231;-79
2021/08/08 03:38:14;;;;;;;1.47;0.50;;;;;;;16.24;68.20;99728.66;5020121;28;20275;-79
2021/08/08 03:40:44;;;;;;;1.67;0.63;;;;;;;16.24;68.13;99736.72;5013691;28;20247;-79
2021/08/08 03:43:15;;;;;;;0.53;0.50;;;;;;;16.25;68.02;99741.09;5015848;28;20693;-80
2021/08/08 03:45:42;;;;;;;1.40;0.80;;;;;;;16.25;68.17;99738.41;5017550;28;20198;-80
2021/08/08 03:48:09;;;;;;;0.93;0.40;;;;;;;16.26;68.18;99739.25;5012032;28;20234;-80
2021/08/08 03:50:35;;;;;;;3.10;0.60;;;;;;;16.25;68.35;99740.25;5009003;28;20221;-79
2021/08/08 03:53:02;;;;;;;1.37;0.67;;;;;;;16.25;68.37;99741.09;5013496;28;20732;-79
2021/08/08 03:55:28;;;;;;;1.63;0.50;;;;;;;16.27;68.38;99749.00;5012733;28;20227;-79
2021/08/08 03:57:57;;;;;;;0.50;0.47;;;;;;;16.26;68.46;99750.00;5011813;28;20306;-79
2021/08/08 04:00:25;;;;;;;1.70;0.80;;;;;;;16.30;68.67;99746.00;5011649;28;20227;-79
2021/08/08 04:02:51;;;;;;;0.90;0.50;;;;;;;16.30;68.79;99746.00;5003461;28;20577;-79
2021/08/08 04:05:18;;;;;;;1.67;0.60;;;;;;;16.32;68.70;99749.34;5012214;28;20210;-80
2021/08/08 04:07:44;;;;;;;2.43;0.60;;;;;;;16.34;68.67;99750.03;5013278;28;20208;-79
2021/08/08 04:10:12;;;;;;;2.20;0.80;;;;;;;16.35;68.64;99761.63;5010745;28;20234;-79
2021/08/08 04:12:38;;;;;;;1.63;0.50;;;;;;;16.36;68.69;99761.47;5013884;28;20200;-80
2021/08/08 04:15:07;;;;;;;0.40;0.40;;;;;;;16.35;68.38;99759.78;5010975;28;20232;-80
2021/08/08 04:17:35;;;;;;;1.37;0.60;;;;;;;16.36;68.64;99761.47;5008478;28;20205;-80
2021/08/08 04:20:01;;;;;;;1.30;0.80;;;;;;;16.37;68.63;99759.63;5011605;28;20299;-79
2021/08/08 04:22:28;;;;;;;0.73;0.50;;;;;;;16.39;68.64;99765.69;5011351;28;20595;-79
2021/08/08 04:24:55;;;;;;;1.73;0.70;;;;;;;16.39;68.69;99766.53;5011100;28;20692;-80
2021/08/08 04:27:21;;;;;;;1.80;0.60;;;;;;;16.40;69.06;99770.06;5017184;28;20231;-80
2021/08/08 04:29:48;;;;;;;1.10;0.73;;;;;;;16.41;68.86;99767.25;5012236;28;20223;-80
2021/08/08 04:32:15;;;;;;;0.90;0.50;;;;;;;16.45;68.80;99776.69;5012639;28;20212;-80
2021/08/08 04:34:43;;;;;;;2.37;0.70;;;;;;;16.44;68.95;99783.06;5019224;28;20660;-79
2021/08/08 04:37:10;;;;;;;1.57;0.90;;;;;;;16.47;68.97;99785.44;5023511;28;20639;-80
2021/08/08 04:39:36;;;;;;;0.90;0.50;;;;;;;16.47;68.81;99784.59;5020400;28;20755;-80
2021/08/08 04:42:03;;;;;;;1.33;0.60;;;;;;;16.51;68.93;99791.31;5017336;28;20864;-79
2021/08/08 04:44:30;;;;;;;1.83;0.70;;;;;;;16.52;68.78;99793.84;5013466;28;20287;-80
2021/08/08 04:46:56;;;;;;;1.17;0.50;;;;;;;16.56;68.90;99794.41;5014437;28;20230;-79
2021/08/08 04:49:23;;;;;;;0.93;0.67;;;;;;;16.58;68.66;99784.34;5015854;28;20227;-80
2021/08/08 04:51:51;;;;;;;1.13;0.70;;;;;;;16.57;68.72;99791.56;5018137;28;20312;-80
2021/08/08 04:54:18;;;;;;;1.00;0.67;;;;;;;16.57;68.82;99791.56;5019542;28;20380;-80
2021/08/08 04:56:45;;;;;;;1.27;0.80;;;;;;;16.59;68.69;99789.56;5014994;28;20683;-80
2021/08/08 04:59:12;;;;;;;0.77;0.63;;;;;;;16.60;68.55;99788.56;5015147;28;20228;-80
2021/08/08 05:01:39;;;;;;;2.70;0.80;;;;;;;16.64;68.73;99797.19;5015038;28;20270;-79
2021/08/08 05:04:06;;;;;;;1.90;0.97;;;;;;;16.65;68.84;99794.34;5017469;28;20206;-80
2021/08/08 05:06:33;;;;;;;2.20;1.17;;;;;;;16.69;68.59;99789.47;5019255;28;20208;-79
2021/08/08 05:09:02;;;;;;;2.10;0.83;;;;;;;16.70;68.68;99785.78;5017543;28;20232;-80
2021/08/08 05:11:29;;;;;;;0.80;0.80;;;;;;;16.74;68.47;99784.47;5009830;28;20211;-80
2021/08/08 05:13:56;;;;;;;1.43;0.90;;;;;;;16.76;68.61;99789.72;5009376;28;20234;-80
2021/08/08 05:16:22;;;;;;;1.10;0.83;;;;;;;16.78;68.64;99793.94;5013053;28;20232;-80
2021/08/08 05:18:49;;;;;;;0.90;0.90;;;;;;;16.81;68.61;99787.41;5016557;28;20288;-80
2021/08/08 05:21:15;;;;;;;2.90;1.13;;;;;;;16.83;68.48;99796.16;5013001;28;20205;-80
2021/08/08 05:23:42;;;;;;;1.80;0.80;;;;;;;16.85;68.42;99791.44;5019546;28;20210;-80
2021/08/08 05:26:10;;;;;;;4.33;0.80;;;;;;;16.86;68.47;99790.44;5013230;28;20216;-80
2021/08/08 05:28:40;;;;;;;1.00;0.90;;;;;;;16.87;68.46;99798.34;5018727;28;20673;-80
2021/08/08 05:31:07;;;;;;;1.17;0.93;;;;;;;16.91;68.47;99796.19;5008717;28;20580;-80
2021/08/08 05:33:34;;;;;;;1.50;0.93;;;;;;;16.93;68.49;99802.25;5016340;28;20281;-80
2021/08/08 05:36:00;;;;;;;1.40;0.73;;;;;;;16.98;68.53;99805.31;5021634;28;20323;-80
2021/08/08 05:38:27;;;;;;;2.60;0.90;;;;;;;17.01;68.18;99802.31;5014342;28;20345;-80
2021/08/08 05:40:54;;;;;;;1.87;0.97;;;;;;;17.04;67.80;99806.50;5016968;28;20262;-80
2021/08/08 05:43:22;;;;;;;2.83;1.17;;;;;;;17.07;67.98;99803.50;5014011;28;20641;-80
2021/08/08 05:45:48;;;;;;;1.20;1.07;;;;;;;17.08;67.45;99802.50;5013456;28;20210;-80
2021/08/08 05:48:15;;;;;;;1.17;1.00;;;;;;;17.11;67.55;99810.28;5016487;28;20240;-79
2021/08/08 05:50:42;;;;;;;1.53;1.17;;;;;;;17.14;67.39;99818.88;5013277;28;20230;-80
2021/08/08 05:53:08;;;;;;;2.33;1.10;;;;;;;17.19;67.38;99821.94;5013437;28;20300;-80
2021/08/08 05:55:36;;;;;;;1.80;1.03;;;;;;;17.24;67.29;99827.66;5010230;28;20802;-80
2021/08/08 05:58:03;;;;;;;1.67;1.10;;;;;;;17.30;67.05;99826.19;5013695;28;20218;-79
2021/08/08 06:00:31;;;;;;;1.43;1.00;;;;;;;17.32;66.61;99830.41;5016754;28;20747;-80
2021/08/08 06:02:57;;;;;;;2.70;1.20;;;;;;;17.34;66.56;99825.72;5013230;28;20209;-80
2021/08/08 06:05:24;;;;;;;1.20;1.10;;;;;;;17.35;66.34;99827.41;5013853;28;20562;-80
2021/08/08 06:07:50;;;;;;;2.20;1.03;;;;;;;17.34;65.94;99831.09;5013064;28;20615;-80
2021/08/08 06:10:17;;;;;;;4.00;1.20;;;;;;;17.37;66.08;99840.72;5020671;28;20512;-80
2021/08/08 06:12:43;;;;;;;1.00;0.90;;;;;;;17.38;65.98;99839.66;5014665;28;20213;-80
2021/08/08 06:15:11;;;;;;;1.83;1.20;;;;;;;17.40;65.74;99842.22;5013004;28;20332;-80
2021/08/08 06:17:39;;;;;;;1.90;1.10;;;;;;;17.42;65.82;99853.66;5012668;28;20204;-79
2021/08/08 06:20:06;;;;;;;1.60;0.97;;;;;;;17.44;65.76;99859.72;5013005;28;20255;-79
2021/08/08 06:22:33;;;;;;;2.60;1.33;;;;;;;17.45;65.44;99853.34;5007455;28;20216;-80
2021/08/08 06:24:59;;;;;;;2.13;1.13;;;;;;;17.48;65.48;99863.78;5016276;28;20248;-80
2021/08/08 06:27:26;;;;;;;2.53;1.20;;;;;;;17.47;65.34;99860.25;5012972;28;20289;-80
2021/08/08 06:29:52;;;;;;;3.20;1.20;;;;;;;17.50;65.34;99872.56;5013070;28;20245;-80
2021/08/08 06:32:19;;;;;;;1.93;1.20;;;;;;;17.51;65.17;99860.78;5013403;28;20208;-80
2021/08/08 06:34:47;;;;;;;2.87;1.10;;;;;;;17.54;64.97;99860.47;5011538;28;20299;-80
2021/08/08 06:37:14;;;;;;;2.10;1.00;;;;;;;17.58;64.67;99869.91;5012787;28;20240;-80
2021/08/08 06:39:41;;;;;;;1.83;1.63;;;;;;;17.61;64.55;99877.66;5012353;28;20248;-80
2021/08/08 06:42:07;;;;;;;3.53;1.30;;;;;;;17.65;63.99;99887.13;5013001;28;20205;-80
2021/08/08 06:44:34;;;;;;;3.30;1.10;;;;;;;17.74;63.82;99886.16;5017058;28;20293;-80
2021/08/08 06:47:01;;;;;;;1.30;0.93;;;;;;;17.81;64.02;99894.44;5016058;28;20711;-80
2021/08/08 06:49:27;;;;;;;2.73;1.07;;;;;;;17.89;63.50;99897.19;5012612;28;20253;-80
2021/08/08 06:51:55;;;;;;;3.37;1.20;;;;;;;17.96;63.08;99900.91;5012153;28;20221;-80
2021/08/08 06:54:22;;;;;;;1.33;1.23;;;;;;;18.01;62.50;99907.50;5013334;28;20296;-80
2021/08/08 06:56:49;;;;;;;2.53;1.40;;;;;;;18.09;62.06;99908.53;5011589;28;20635;-80
2021/08/08 06:59:16;;;;;;;2.63;1.23;;;;;;;18.18;61.73;99907.56;5011248;28;20229;-80
2021/08/08 07:01:42;;;;;;;1.33;1.20;;;;;;;18.28;60.85;99905.53;5011982;28;20231;-80
2021/08/08 07:04:09;;;;;;;1.90;1.30;;;;;;;18.36;60.44;99908.28;5015182;28;20253;-80
2021/08/08 07:06:36;;;;;;;2.27;1.40;;;;;;;18.46;60.20;99906.25;5020849;28;20298;-79
2021/08/08 07:09:07;;;;;;;7.67;1.67;;;;;;;18.55;60.12;99909.81;5012460;28;20266;-80
2021/08/08 07:11:34;;;;;;;3.43;1.40;;;;;;;18.63;59.37;99913.41;5012117;28;20197;-80
2021/08/08 07:14:01;;;;;;;2.67;1.60;;;;;;;18.67;58.82;99919.31;5011041;28;20207;-80
2021/08/08 07:16:27;;;;;;;2.90;1.40;;;;;;;18.70;58.64;99917.13;5011855;28;20242;-80
2021/08/08 07:18:54;;;;;;;1.80;1.40;;;;;;;18.72;58.43;99917.81;5013572;28;20209;-80
2021/08/08 07:21:20;;;;;;;3.20;1.33;;;;;;;18.77;58.44;99927.25;5012498;28;20216;-80
2021/08/08 07:23:47;;;;;;;1.37;1.20;;;;;;;18.81;58.33;99931.31;5012588;28;20359;-80
2021/08/08 07:26:15;;;;;;;3.67;1.10;;;;;;;18.87;57.80;99933.31;5013147;28;20204;-80
2021/08/08 07:28:41;;;;;;;3.33;1.50;;;;;;;18.92;58.04;99934.53;5012095;28;20209;-80
2021/08/08 07:31:08;;;;;;;3.17;1.30;;;;;;;18.99;57.95;99938.22;5012253;28;20666;-80
2021/08/08 07:33:34;;;;;;;1.50;1.30;;;;;;;19.04;57.39;99927.75;5010642;28;20239;-80
2021/08/08 07:36:01;;;;;;;2.50;1.40;;;;;;;19.11;57.05;99941.44;5017410;28;20702;-80
2021/08/08 07:38:28;;;;;;;3.53;1.40;;;;;;;19.18;56.51;99946.97;5011521;28;20250;-80
2021/08/08 07:40:54;;;;;;;2.00;1.33;;;;;;;19.24;56.30;99959.81;5014051;28;20252;-80
2021/08/08 07:43:22;;;;;;;3.10;1.33;;;;;;;19.34;55.77;99939.75;5013525;28;20293;-80
2021/08/08 07:45:49;;;;;;;3.23;1.30;;;;;;;19.46;54.62;99944.78;5013348;28;20211;-80
2021/08/08 07:48:15;;;;;;;3.47;1.80;;;;;;;19.56;54.61;99962.50;5013038;28;20302;-80
2021/08/08 07:50:47;;;;;;;2.43;1.53;;;;;;;19.65;54.24;99958.78;5012030;28;20227;-80
2021/08/08 07:53:14;;;;;;;3.97;1.60;;;;;;;19.84;53.79;99962.13;5006543;28;20641;-81
2021/08/08 07:55:40;;;;;;;2.07;1.10;;;;;;;19.97;53.01;99967.81;5011821;28;20277;-80
2021/08/08 07:58:07;;;;;;;4.43;1.63;;;;;;;20.04;52.27;99974.22;5011621;28;20640;-79
2021/08/08 08:00:35;;;;;;;1.90;1.20;;;;;;;20.10;52.29;99974.34;5013312;28;20253;-80
2021/08/08 08:03:02;;;;;;;3.97;1.40;;;;;;;20.23;52.01;99978.38;5013374;28;20297;-80
2021/08/08 08:05:28;;;;;;;3.07;1.43;;;;;;;20.40;51.94;99980.88;5013951;28;20216;-80
2021/08/08 08:07:55;;;;;;;4.20;1.20;;;;;;;20.54;51.23;99981.97;5015003;28;20215;-80
2021/08/08 08:10:21;;;;;;;3.33;1.43;;;;;;;20.66;50.53;99990.50;5016667;28;20295;-81
2021/08/08 08:12:48;;;;;;;5.23;1.50;;;;;;;20.84;50.48;99995.66;5014175;28;20324;-80
2021/08/08 08:15:15;;;;;;;3.60;1.53;;;;;;;21.02;49.82;99990.78;5018724;28;20227;-81
2021/08/08 08:17:43;;;;;;;3.50;1.43;;;;;;;21.07;48.73;99994.66;5018440;28;20287;-81
2021/08/08 08:20:11;;;;;;;3.47;1.43;;;;;;;21.15;48.73;100001.84;5019600;28;20235;-81
2021/08/08 08:22:38;;;;;;;3.28;1.00;;;;;;;21.07;47.98;99994.66;5025871;28;20301;-81
2021/08/08 08:25:06;;;;;;;5.67;1.63;;;;;;;21.05;48.49;99993.97;5028889;28;20210;-81
2021/08/08 08:27:34;;;;;;;2.20;1.10;;;;;;;21.13;48.37;100003.91;5017874;28;20213;-81
2021/08/08 08:30:01;;;;;;;3.95;1.48;;;;;;;21.11;48.05;99995.13;5017084;28;20237;-81
2021/08/08 08:32:27;;;;;;;2.57;1.20;;;;;;;21.17;47.24;100005.22;5017965;28;20289;-81
2021/08/08 08:34:55;;;;;;;4.63;1.20;;;;;;;21.14;47.45;99989.34;5018204;28;20297;-81
2021/08/08 08:37:27;;;;;;;3.55;1.50;;;;;;;21.24;47.26;99995.38;5017690;28;20225;-81
2021/08/08 08:39:54;;;;;;;1.63;0.90;;;;;;;21.34;47.33;99989.72;5021185;28;20300;-81
2021/08/08 08:42:22;;;;;;;4.18;1.75;;;;;;;21.41;46.03;99996.09;5022228;28;20208;-82
2021/08/08 08:44:52;;;;;;;3.50;1.40;;;;;;;21.52;46.04;99989.38;5018916;28;20618;-81
2021/08/08 08:47:21;;;;;;;4.88;1.25;;;;;;;21.64;46.41;99990.63;5031148;28;20271;-81
2021/08/08 08:49:49;;;;;;;4.57;1.50;;;;;;;21.68;44.89;100000.06;5017623;28;20226;-81
2021/08/08 08:52:26;;;;;;;2.65;1.27;;;;;;;21.72;44.13;99999.50;5018252;28;20293;-81
2021/08/08 08:54:52;;;;;;;2.78;1.20;;;;;;;21.77;44.38;100007.09;5017454;28;20214;-81
2021/08/08 08:57:19;;;;;;;1.80;1.00;;;;;;;21.80;44.52;99998.59;5017908;28;20317;-81
2021/08/08 08:59:47;;;;;;;1.42;0.98;;;;;;;21.92;44.73;100001.69;5016886;28;20235;-81
2021/08/08 09:02:16;;;;;;;2.85;1.20;;;;;;;21.95;43.98;99999.47;5017021;28;20212;-81
2021/08/08 09:04:43;;;;;;;2.08;1.20;;;;;;;22.09;44.34;100012.19;5017958;28;20276;-81
2021/08/08 09:07:10;;;;;;;4.60;1.13;;;;;;;22.17;44.44;100014.00;5017331;28;20249;-81
2021/08/08 09:09:42;;;;;;;2.35;0.90;;;;;;;22.23;43.37;100020.50;5032066;28;20246;-81
2021/08/08 09:12:09;;;;;;;2.65;1.40;;;;;;;22.20;43.53;100037.19;5018591;28;20199;-82
2021/08/08 09:14:39;;;;;;;3.70;1.67;;;;;;;22.04;43.78;100025.47;5010214;28;20235;-82
2021/08/08 09:17:07;;;;;;;2.38;1.40;;;;;;;21.92;44.00;100036.94;5010965;28;20300;-82
2021/08/08 09:19:37;;;;;;;2.72;1.45;;;;;;;21.81;44.22;100039.09;5016042;28;20223;-81
2021/08/08 09:22:04;;;;;;;3.60;1.30;;;;;;;21.72;44.51;100044.75;4998008;28;20265;-81
2021/08/08 09:24:33;;;;;;;3.42;1.40;;;;;;;21.64;44.71;100055.69;5015037;28;20582;-81
2021/08/08 09:27:04;;;;;;;1.65;1.20;;;;;;;21.55;45.35;100052.19;5033732;28;20281;-81
2021/08/08 09:29:34;;;;;;;3.85;1.40;;;;;;;21.53;45.61;100058.81;5018258;28;20238;-81
2021/08/08 09:32:05;;;;;;;5.07;1.20;;;;;;;21.48;45.95;100065.63;5018573;28;20213;-81
2021/08/08 09:34:36;;;;;;;1.60;1.00;;;;;;;21.41;45.99;100066.53;5017334;28;20211;-81
2021/08/08 09:37:05;;;;;;;6.15;1.60;;;;;;;21.33;46.48;100064.72;5017575;28;20675;-82
2021/08/08 09:39:34;;;;;;;4.28;1.30;;;;;;;21.32;46.74;100060.31;5017016;28;20226;-82
2021/08/08 09:42:13;;;;;;;3.57;1.30;;;;;;;21.24;46.78;100073.94;5017693;28;20214;-81
2021/08/08 09:44:51;;;;;;;2.37;1.30;;;;;;;21.18;47.20;100074.59;5003239;28;20216;-82
2021/08/08 09:47:18;;;;;;;2.90;1.20;;;;;;;21.18;47.38;100079.19;5018381;28;20198;-82
2021/08/08 09:49:54;;;;;;;4.10;1.27;;;;;;;21.20;47.93;100083.44;5018919;28;20245;-81
2021/08/08 09:52:24;;;;;;;2.60;1.57;;;;;;;21.21;47.72;100085.13;5025553;28;20190;-81
2021/08/08 09:54:50;;;;;;;2.80;1.25;;;;;;;21.22;47.93;100077.84;5022546;28;20223;-81
2021/08/08 09:57:18;;;;;;;2.90;1.30;;;;;;;21.21;48.20;100087.81;5019012;28;20289;-81
2021/08/08 09:59:48;;;;;;;3.27;1.50;;;;;;;21.20;48.35;100096.97;5018203;28;20311;-81
2021/08/08 10:02:19;;;;;;;2.77;1.60;;;;;;;21.19;48.22;100095.25;5019459;28;20208;-81
2021/08/08 10:04:45;;;;;;;1.98;1.20;;;;;;;21.15;48.44;100102.88;5018644;28;20187;-81
2021/08/08 10:07:16;;;;;;;2.70;1.20;;;;;;;21.10;48.48;100118.00;5018605;28;20697;-81
2021/08/08 10:09:44;;;;;;;2.73;1.37;;;;;;;21.04;48.55;100113.28;5015089;28;20795;-81
2021/08/08 10:12:31;;;;;;;2.77;1.00;;;;;;;20.98;48.35;100114.81;5015679;28;20214;-81
2021/08/08 10:15:00;;;;;;;3.37;1.40;;;;;;;20.91;48.99;100116.56;5014353;28;20695;-81
2021/08/08 10:17:29;;;;;;;3.93;1.53;;;;;;;20.93;49.16;100132.63;5016021;28;20757;-81
2021/08/08 10:19:57;;;;;;;5.32;1.27;;;;;;;20.80;48.36;100128.63;5015293;28;20249;-81
2021/08/08 10:22:25;;;;;;;3.87;1.43;;;;;;;20.77;48.28;100114.63;5015259;28;20202;-81
2021/08/08 10:24:56;;;;;;;5.00;1.70;;;;;;;20.67;48.19;100117.50;5014581;28;20556;-81
2021/08/08 10:27:24;;;;;;;1.63;1.00;;;;;;;20.67;48.70;100111.25;5017451;28;20183;-81
2021/08/08 10:29:51;;;;;;;3.00;1.20;;;;;;;20.72;48.52;100125.97;5017291;28;20926;-81
2021/08/08 10:32:19;;;;;;;3.57;1.37;;;;;;;20.72;48.73;100117.84;5017182;28;20283;-81
2021/08/08 10:34:46;;;;;;;2.97;1.77;;;;;;;20.75;48.86;100108.53;5017365;28;20238;-81
2021/08/08 10:37:14;;;;;;;3.80;1.57;;;;;;;20.78;48.80;100097.38;5017014;28;20233;-82
2021/08/08 10:39:43;;;;;;;4.10;1.40;;;;;;;20.86;49.17;100101.88;5017271;28;20251;-81
2021/08/08 10:42:10;;;;;;;4.47;1.50;;;;;;;20.93;49.04;100102.88;5038067;28;20240;-81
2021/08/08 10:44:48;;;;;;;3.07;1.30;;;;;;;20.99;48.61;100100.28;5035911;28;20255;-82
2021/08/08 10:47:26;;;;;;;3.27;1.80;;;;;;;21.06;47.92;100101.25;5036086;28;20236;-81
2021/08/08 10:49:53;;;;;;;4.73;1.43;;;;;;;21.12;48.49;100100.56;5031074;28;20278;-82
2021/08/08 10:52:20;;;;;;;2.90;1.30;;;;;;;21.18;48.20;100096.28;5016245;28;20283;-82
2021/08/08 10:54:48;;;;;;;3.43;1.70;;;;;;;21.20;48.35;100113.22;5016689;28;20218;-83
2021/08/08 10:57:16;;;;;;;2.13;0.93;;;;;;;21.31;47.93;100104.72;5016109;28;20227;-82
2021/08/08 10:59:45;;;;;;;3.40;1.45;;;;;;;21.33;47.51;100102.63;5016065;28;20251;-82
2021/08/08 11:02:14;;;;;;;2.73;1.43;;;;;;;21.29;46.75;100100.47;5016237;28;20237;-81
2021/08/08 11:04:43;;;;;;;4.63;1.47;;;;;;;21.28;47.05;100102.34;5016177;28;20301;-81
2021/08/08 11:07:11;;;;;;;2.97;1.27;;;;;;;21.31;47.56;100095.75;5016591;28;20234;-81
2021/08/08 11:09:40;;;;;;;4.22;1.60;;;;;;;21.37;47.43;100108.53;5024174;28;20217;-81
2021/08/08 11:12:09;;;;;;;3.93;1.50;;;;;;;21.45;47.80;100117.47;5032555;28;20273;-81
2021/08/08 11:14:35;;;;;;;2.97;1.27;;;;;;;21.55;47.53;100122.63;5018608;28;20241;-81
2021/08/08 11:17:04;;;;;;;4.13;1.85;;;;;;;21.65;47.19;100114.28;5011205;28;20230;-81
2021/08/08 11:19:36;;;;;;;3.20;1.33;;;;;;;21.79;47.36;100119.75;5019495;28;20244;-81
2021/08/08 11:22:12;;;;;;;2.33;1.30;;;;;;;21.93;46.72;100119.97;5014576;28;20219;-81
2021/08/08 11:24:40;;;;;;;3.22;1.90;;;;;;;22.06;46.16;100121.03;5017438;28;20290;-81
2021/08/08 11:27:08;;;;;;;4.03;1.75;;;;;;;22.20;46.01;100121.28;5018453;28;20211;-81
2021/08/08 11:29:36;;;;;;;2.55;1.40;;;;;;;22.28;45.38;100130.16;5016336;28;20222;-81
2021/08/08 11:32:06;;;;;;;3.25;1.75;;;;;;;22.33;45.42;100135.88;5024849;28;20234;-81
2021/08/08 11:34:33;;;;;;;6.18;5.50;;;;;;;22.39;45.35;100132.41;5018295;28;20210;-81